createdAt,value
2023-03-15T00:01:05.477Z,1
2023-03-15T00:03:05.298Z,1
2023-03-15T00:05:04.821Z,1
2023-03-15T00:07:11.671Z,1
2023-03-15T00:09:05.559Z,1
2023-03-15T00:11:05.507Z,1
2023-03-15T00:13:05.712Z,1
2023-03-15T00:15:08.713Z,1
2023-03-15T00:17:05.411Z,1
2023-03-15T00:19:05.159Z,1
2023-03-15T00:21:05.485Z,1
2023-03-15T00:23:11.340Z,1
2023-03-15T00:25:08.722Z,1
2023-03-15T00:27:04.805Z,1
2023-03-15T00:29:05.051Z,1
2023-03-15T00:31:05.449Z,1
2023-03-15T00:33:05.655Z,1
2023-03-15T00:35:04.828Z,1
2023-03-15T00:37:05.545Z,1
2023-03-15T00:39:05.109Z,1
2023-03-15T00:41:05.540Z,1
2023-03-15T00:43:08.767Z,1
2023-03-15T00:45:08.729Z,1
2023-03-15T00:47:05.467Z,1
2023-03-15T00:49:05.038Z,1
2023-03-15T00:51:04.817Z,1
2023-03-15T00:53:04.801Z,1
2023-03-15T00:55:04.859Z,1
2023-03-15T00:57:05.683Z,1
2023-03-15T00:59:05.798Z,1
2023-03-15T01:01:05.387Z,1
2023-03-15T01:03:04.883Z,1
2023-03-15T01:05:08.320Z,1
2023-03-15T01:07:05.595Z,1
2023-03-15T01:09:05.080Z,1
2023-03-15T01:11:05.633Z,1
2023-03-15T01:13:05.695Z,1
2023-03-15T01:15:11.798Z,1
2023-03-15T01:17:11.859Z,1
2023-03-15T01:19:05.166Z,1
2023-03-15T01:21:05.532Z,1
2023-03-15T01:23:11.390Z,1
2023-03-15T01:25:08.515Z,1
2023-03-15T01:27:05.693Z,1
2023-03-15T01:29:04.893Z,1
2023-03-15T01:31:04.893Z,1
2023-03-15T01:33:05.689Z,1
2023-03-15T01:35:08.364Z,1
2023-03-15T01:37:05.352Z,1
2023-03-15T01:39:08.842Z,1
2023-03-15T01:41:05.355Z,1
2023-03-15T01:43:11.834Z,1
2023-03-15T01:45:10.936Z,1
2023-03-15T01:47:05.697Z,1
2023-03-15T01:49:02.181Z,1
2023-03-15T01:53:05.274Z,1
2023-03-15T01:55:05.629Z,1
2023-03-15T01:57:05.410Z,1
2023-03-15T01:59:05.537Z,1
2023-03-15T02:01:05.466Z,1
2023-03-15T02:03:05.431Z,1
2023-03-15T02:05:08.539Z,1
2023-03-15T02:07:05.425Z,1
2023-03-15T02:09:05.532Z,1
2023-03-15T02:11:05.146Z,1
2023-03-15T02:13:08.708Z,1
2023-03-15T02:15:05.509Z,1
2023-03-15T02:17:05.526Z,1
2023-03-15T02:19:11.977Z,1
2023-03-15T02:21:04.847Z,1
2023-03-15T02:23:08.342Z,1
2023-03-15T02:25:05.757Z,1
2023-03-15T02:27:11.517Z,1
2023-03-15T02:29:05.057Z,1
2023-03-15T02:31:04.897Z,1
2023-03-15T02:35:04.839Z,1
2023-03-15T02:37:05.540Z,1
2023-03-15T02:39:05.498Z,1
2023-03-15T02:41:11.251Z,1
2023-03-15T02:43:05.440Z,1
2023-03-15T02:45:05.684Z,1
2023-03-15T02:47:05.696Z,1
2023-03-15T02:49:05.039Z,1
2023-03-15T02:51:05.375Z,1
2023-03-15T02:55:05.538Z,1
2023-03-15T02:57:05.509Z,1
2023-03-15T02:59:05.286Z,1
2023-03-15T03:01:05.517Z,1
2023-03-15T03:03:11.760Z,1
2023-03-15T03:05:04.839Z,1
2023-03-15T03:07:05.464Z,1
2023-03-15T03:09:05.539Z,1
2023-03-15T03:11:08.719Z,1
2023-03-15T03:13:08.841Z,1
2023-03-15T03:15:04.850Z,1
2023-03-15T03:17:04.872Z,1
2023-03-15T03:19:05.641Z,1
2023-03-15T03:21:05.313Z,1
2023-03-15T03:23:05.616Z,1
2023-03-15T03:25:05.460Z,1
2023-03-15T03:27:08.743Z,1
2023-03-15T03:29:05.630Z,1
2023-03-15T03:31:05.345Z,1
2023-03-15T03:33:11.834Z,1
2023-03-15T03:35:05.365Z,1
2023-03-15T03:37:04.852Z,1
2023-03-15T03:39:05.222Z,1
2023-03-15T03:41:04.864Z,1
2023-03-15T03:43:05.435Z,1
2023-03-15T03:45:04.848Z,1
2023-03-15T03:47:04.873Z,1
2023-03-15T03:49:05.701Z,1
2023-03-15T03:51:05.728Z,1
2023-03-15T03:53:05.460Z,1
2023-03-15T03:55:05.117Z,1
2023-03-15T03:57:04.876Z,1
2023-03-15T03:59:05.063Z,1
2023-03-15T04:01:11.845Z,1
2023-03-15T04:03:05.407Z,1
2023-03-15T04:05:05.458Z,1
2023-03-15T04:07:11.764Z,1
2023-03-15T04:09:05.394Z,1
2023-03-15T04:11:08.792Z,1
2023-03-15T04:13:05.719Z,1
2023-03-15T04:15:05.683Z,1
2023-03-15T04:17:02.300Z,1
2023-03-15T04:19:11.891Z,1
2023-03-15T04:21:08.612Z,1
2023-03-15T04:23:08.707Z,1
2023-03-15T04:25:08.823Z,1
2023-03-15T04:27:11.629Z,1
2023-03-15T04:29:04.860Z,1
2023-03-15T04:31:05.343Z,1
2023-03-15T04:33:05.677Z,1
2023-03-15T04:35:05.597Z,1
2023-03-15T04:37:04.870Z,1
2023-03-15T04:39:05.184Z,1
2023-03-15T04:41:08.714Z,1
2023-03-15T04:43:08.760Z,0
2023-03-15T04:45:04.842Z,0
2023-03-15T04:47:05.527Z,0
2023-03-15T04:49:05.633Z,0
2023-03-15T04:51:04.879Z,0
2023-03-15T04:53:04.888Z,0.1
2023-03-15T04:55:11.881Z,0.2
2023-03-15T04:57:05.498Z,0.2
2023-03-15T04:59:05.086Z,0.3
2023-03-15T05:01:05.605Z,0.4
2023-03-15T05:03:05.609Z,0.6
2023-03-15T05:05:08.799Z,0.9
2023-03-15T05:07:08.682Z,1.3
2023-03-15T05:09:04.867Z,2.1
2023-03-15T05:13:08.402Z,4.5
2023-03-15T05:15:11.665Z,6
2023-03-15T05:17:05.516Z,7.8
2023-03-15T05:19:05.166Z,9.5
2023-03-15T05:23:04.857Z,24.5
2023-03-15T05:25:05.770Z,34.8
2023-03-15T05:29:11.855Z,70.1
2023-03-15T05:31:08.707Z,94.6
2023-03-15T05:33:05.392Z,121.5
2023-03-15T05:35:04.856Z,134.3
2023-03-15T05:37:11.851Z,141.2
2023-03-15T05:39:05.234Z,190.6
2023-03-15T05:41:04.851Z,257.2
2023-03-15T05:45:05.488Z,298.9
2023-03-15T05:47:04.918Z,284.3
2023-03-15T05:49:08.775Z,298.9
2023-03-15T05:51:04.862Z,314.2
2023-03-15T05:53:05.615Z,365
2023-03-15T05:55:05.010Z,445.9
2023-03-15T05:57:05.556Z,518
2023-03-15T05:59:05.010Z,572.5
2023-03-15T06:01:05.210Z,699.2
2023-03-15T06:03:05.385Z,854.1
2023-03-15T06:05:05.478Z,1152.9
2023-03-15T06:07:05.471Z,1274.1
2023-03-15T06:09:05.492Z,1408.1
2023-03-15T06:11:05.572Z,1636
2023-03-15T06:13:02.681Z,1808
2023-03-15T06:15:05.036Z,1636
2023-03-15T06:17:05.552Z,1719.9
2023-03-15T06:19:07.380Z,1636
2023-03-15T06:21:08.850Z,1636
2023-03-15T06:23:04.887Z,1636
2023-03-15T06:25:08.740Z,1636
2023-03-15T06:27:08.721Z,1900.7
2023-03-15T06:29:11.906Z,2440.6
2023-03-15T06:31:04.915Z,2697.3
2023-03-15T06:33:11.739Z,2835.6
2023-03-15T06:35:05.405Z,2981
2023-03-15T06:37:05.394Z,2440.6
2023-03-15T06:39:05.377Z,2100.6
2023-03-15T06:41:08.919Z,1900.7
2023-03-15T06:43:05.582Z,2208.3
2023-03-15T06:45:07.188Z,2440.6
2023-03-15T06:47:04.907Z,2835.6
2023-03-15T06:49:08.533Z,2835.6
2023-03-15T06:51:06.750Z,2697.3
2023-03-15T06:53:08.623Z,2697.3
2023-03-15T06:55:05.062Z,2835.6
2023-03-15T06:57:04.844Z,3133.8
2023-03-15T06:59:11.502Z,3641
2023-03-15T07:01:05.306Z,3827.6
2023-03-15T07:03:07.959Z,3463.4
2023-03-15T07:05:04.899Z,3827.6
2023-03-15T07:07:11.863Z,5431.7
2023-03-15T07:09:02.278Z,5710.1
2023-03-15T07:11:05.449Z,3294.5
2023-03-15T07:13:11.823Z,3133.8
2023-03-15T07:15:07.298Z,3463.4
2023-03-15T07:17:08.708Z,4023.9
2023-03-15T07:19:11.855Z,5431.7
2023-03-15T07:21:08.559Z,18033.7
2023-03-15T07:23:04.881Z,4023.9
2023-03-15T07:25:05.404Z,4914.8
2023-03-15T07:27:13.798Z,4914.8
2023-03-15T07:29:08.806Z,4914.8
2023-03-15T07:31:11.687Z,12708.2
2023-03-15T07:33:08.039Z,5431.7
2023-03-15T07:37:04.915Z,18958.4
2023-03-15T07:39:05.622Z,8103.1
2023-03-15T07:41:04.875Z,24343
2023-03-15T07:43:04.874Z,25591.1
2023-03-15T07:45:08.332Z,25591.1
2023-03-15T07:47:05.483Z,25591.1
2023-03-15T07:49:05.414Z,25591.1
2023-03-15T07:51:05.590Z,14764.8
2023-03-15T07:53:08.375Z,6310.7
2023-03-15T07:55:05.142Z,6002.9
2023-03-15T07:57:05.550Z,5431.7
2023-03-15T07:59:05.327Z,5166.8
2023-03-15T08:01:08.517Z,5166.8
2023-03-15T08:03:05.530Z,5166.8
2023-03-15T08:05:05.455Z,5431.7
2023-03-15T08:07:05.651Z,20952.2
2023-03-15T08:09:05.694Z,32859.6
2023-03-15T08:13:04.865Z,34544.4
2023-03-15T08:15:05.255Z,34544.4
2023-03-15T08:19:05.591Z,36315.5
2023-03-15T08:21:05.602Z,38177.4
2023-03-15T08:23:05.566Z,40134.8
2023-03-15T08:25:08.714Z,40134.8
2023-03-15T08:27:05.641Z,40134.8
2023-03-15T08:29:08.668Z,7332
2023-03-15T08:31:05.419Z,28282.5
2023-03-15T08:33:11.616Z,42192.6
2023-03-15T08:35:05.723Z,42192.6
2023-03-15T08:37:04.958Z,12088.4
2023-03-15T08:39:05.036Z,44355.9
2023-03-15T08:41:04.878Z,46630
2023-03-15T08:43:08.871Z,46630
2023-03-15T08:45:08.604Z,10938
2023-03-15T08:47:05.120Z,46630
2023-03-15T08:49:05.585Z,46630
2023-03-15T08:51:05.689Z,49020.8
2023-03-15T08:53:05.590Z,49020.8
2023-03-15T08:55:05.810Z,29732.6
2023-03-15T08:57:04.907Z,7707.9
2023-03-15T08:59:09.288Z,49020.8
2023-03-15T09:01:05.063Z,46630
2023-03-15T09:03:11.470Z,49020.8
2023-03-15T09:05:04.869Z,49020.8
2023-03-15T09:07:04.923Z,51534.2
2023-03-15T09:09:08.636Z,46630
2023-03-15T09:11:05.439Z,28282.5
2023-03-15T09:13:08.962Z,23155.8
2023-03-15T09:15:12.083Z,8518.5
2023-03-15T09:17:05.301Z,26903.2
2023-03-15T09:19:04.958Z,14044.7
2023-03-15T09:21:05.507Z,8955.3
2023-03-15T09:23:05.372Z,11498.8
2023-03-15T09:25:08.960Z,6634.2
2023-03-15T09:27:08.886Z,10938
2023-03-15T09:29:04.854Z,10404.6
2023-03-15T09:31:05.455Z,9897.1
2023-03-15T09:33:04.924Z,10404.6
2023-03-15T09:35:04.909Z,10938
2023-03-15T09:39:12.282Z,9897.1
2023-03-15T09:41:05.551Z,9897.1
2023-03-15T09:43:11.959Z,12708.2
2023-03-15T09:45:05.631Z,12708.2
2023-03-15T09:47:08.413Z,12088.4
2023-03-15T09:49:05.464Z,11498.8
2023-03-15T09:51:11.952Z,11498.8
2023-03-15T09:53:08.944Z,10938
2023-03-15T09:55:05.243Z,12088.4
2023-03-15T09:57:05.557Z,9897.1
2023-03-15T09:59:05.657Z,9414.4
2023-03-15T10:01:09.053Z,8955.3
2023-03-15T10:03:05.386Z,8518.5
2023-03-15T10:05:08.606Z,8955.3
2023-03-15T10:07:08.413Z,9897.1
2023-03-15T10:09:08.241Z,9414.4
2023-03-15T10:11:04.889Z,9897.1
2023-03-15T10:13:08.059Z,7707.9
2023-03-15T10:15:08.855Z,12088.4
2023-03-15T10:19:08.847Z,10938
2023-03-15T10:21:11.838Z,10404.6
2023-03-15T10:23:05.305Z,9414.4
2023-03-15T10:25:04.921Z,9414.4
2023-03-15T10:27:05.592Z,9414.4
2023-03-15T10:29:08.131Z,8955.3
2023-03-15T10:31:04.948Z,8518.5
2023-03-15T10:33:05.540Z,8518.5
2023-03-15T10:35:05.154Z,8518.5
2023-03-15T10:37:05.617Z,8955.3
2023-03-15T10:39:05.429Z,8103.1
2023-03-15T10:41:05.580Z,8955.3
2023-03-15T10:43:07.590Z,8955.3
2023-03-15T10:45:05.801Z,10404.6
2023-03-15T10:47:16.354Z,12708.2
2023-03-15T10:49:05.920Z,13359.7
2023-03-15T10:51:05.549Z,13359.7
2023-03-15T10:53:05.462Z,11498.8
2023-03-15T10:55:05.418Z,11498.8
2023-03-15T10:57:12.019Z,10938
2023-03-15T10:59:12.658Z,9897.1
2023-03-15T11:01:05.538Z,9897.1
2023-03-15T11:03:05.686Z,9897.1
2023-03-15T11:05:04.863Z,9897.1
2023-03-15T11:07:05.499Z,10404.6
2023-03-15T11:09:05.645Z,9897.1
2023-03-15T11:11:05.292Z,9897.1
2023-03-15T11:13:05.463Z,9897.1
2023-03-15T11:15:08.685Z,10404.6
2023-03-15T11:17:08.417Z,9897.1
2023-03-15T11:19:05.004Z,9897.1
2023-03-15T11:21:05.684Z,10938
2023-03-15T11:23:05.011Z,12708.2
2023-03-15T11:25:08.891Z,10404.6
2023-03-15T11:27:09.141Z,10404.6
2023-03-15T11:29:04.878Z,13359.7
2023-03-15T11:31:05.653Z,12088.4
2023-03-15T11:33:05.080Z,12088.4
2023-03-15T11:35:08.865Z,12088.4
2023-03-15T11:37:08.779Z,14764.8
2023-03-15T11:39:05.747Z,13359.7
2023-03-15T11:41:11.949Z,14764.8
2023-03-15T11:43:05.464Z,10404.6
2023-03-15T11:45:05.029Z,13359.7
2023-03-15T11:47:08.001Z,12708.2
2023-03-15T11:51:05.238Z,18033.7
2023-03-15T11:53:05.460Z,18958.4
2023-03-15T11:55:08.842Z,18958.4
2023-03-15T11:57:05.064Z,14764.8
2023-03-15T12:01:11.962Z,18033.7
2023-03-15T12:03:04.933Z,17154.2
2023-03-15T12:05:17.564Z,18958.4
2023-03-15T12:07:08.480Z,18958.4
2023-03-15T12:09:05.708Z,16317.6
2023-03-15T12:11:05.176Z,12708.2
2023-03-15T12:13:05.018Z,11498.8
2023-03-15T12:15:08.056Z,15521.8
2023-03-15T12:17:11.873Z,14764.8
2023-03-15T12:19:04.902Z,15521.8
2023-03-15T12:21:05.617Z,10938
2023-03-15T12:23:05.613Z,12088.4
2023-03-15T12:25:05.529Z,10404.6
2023-03-15T12:27:05.922Z,16317.6
2023-03-15T12:29:05.559Z,9897.1
2023-03-15T12:31:08.545Z,8518.5
2023-03-15T12:33:05.523Z,8955.3
2023-03-15T12:35:04.900Z,15521.8
2023-03-15T12:37:08.869Z,13359.7
2023-03-15T12:39:02.254Z,18958.4
2023-03-15T12:41:05.029Z,11498.8
2023-03-15T12:43:05.498Z,16317.6
2023-03-15T12:45:05.668Z,18958.4
2023-03-15T12:47:05.783Z,14044.7
2023-03-15T12:49:05.453Z,8518.5
2023-03-15T12:51:05.220Z,6634.2
2023-03-15T12:53:04.936Z,5710.1
2023-03-15T12:55:12.038Z,5431.7
2023-03-15T12:57:11.896Z,5431.7
2023-03-15T12:59:08.876Z,6634.2
2023-03-15T13:01:04.924Z,6974.4
2023-03-15T13:03:08.963Z,6634.2
2023-03-15T13:05:05.311Z,6310.7
2023-03-15T13:07:05.568Z,5431.7
2023-03-15T13:09:05.381Z,5166.8
2023-03-15T13:11:05.518Z,4675.1
2023-03-15T13:13:08.285Z,4023.9
2023-03-15T13:15:04.892Z,3463.4
2023-03-15T13:17:07.018Z,3133.8
2023-03-15T13:19:08.383Z,2697.3
2023-03-15T13:21:08.866Z,2565.7
2023-03-15T13:23:08.170Z,2565.7
2023-03-15T13:25:05.723Z,2565.7
2023-03-15T13:27:08.835Z,2697.3
2023-03-15T13:31:08.922Z,2835.6
2023-03-15T13:33:04.912Z,2565.7
2023-03-15T13:35:08.467Z,2565.7
2023-03-15T13:37:08.886Z,2440.6
2023-03-15T13:39:05.679Z,2565.7
2023-03-15T13:41:05.465Z,2697.3
2023-03-15T13:43:08.877Z,2321.6
2023-03-15T13:45:08.870Z,2208.3
2023-03-15T13:47:11.974Z,2208.3
2023-03-15T13:49:05.552Z,2208.3
2023-03-15T13:51:05.389Z,2565.7
2023-03-15T13:53:08.549Z,2697.3
2023-03-15T13:55:05.559Z,2565.7
2023-03-15T13:57:02.305Z,2440.6
2023-03-15T14:01:05.128Z,3294.5
2023-03-15T14:03:05.769Z,3641
2023-03-15T14:05:05.007Z,4023.9
2023-03-15T14:07:05.399Z,4914.8
2023-03-15T14:09:05.282Z,5166.8
2023-03-15T14:11:05.555Z,5166.8
2023-03-15T14:13:04.905Z,5166.8
2023-03-15T14:15:05.546Z,14044.7
2023-03-15T14:17:08.938Z,8103.1
2023-03-15T14:19:08.481Z,6974.4
2023-03-15T14:21:05.592Z,5710.1
2023-03-15T14:23:05.167Z,4230.2
2023-03-15T14:25:05.895Z,3133.8
2023-03-15T14:27:08.829Z,2440.6
2023-03-15T14:29:05.581Z,1998.2
2023-03-15T14:31:05.550Z,1636
2023-03-15T14:33:05.635Z,1480.3
2023-03-15T14:35:08.524Z,1408.1
2023-03-15T14:39:05.248Z,1480.3
2023-03-15T14:41:05.441Z,1636
2023-03-15T14:43:08.538Z,1900.7
2023-03-15T14:45:05.523Z,2208.3
2023-03-15T14:47:08.867Z,2697.3
2023-03-15T14:49:05.450Z,2565.7
2023-03-15T14:51:05.527Z,2100.6
2023-03-15T14:53:05.276Z,1636
2023-03-15T14:55:08.657Z,1339.4
2023-03-15T14:57:05.487Z,1212
2023-03-15T14:59:05.743Z,1096.6
2023-03-15T15:01:08.883Z,1152.9
2023-03-15T15:03:04.951Z,1274.1
2023-03-15T15:05:05.102Z,1408.1
2023-03-15T15:07:05.727Z,1339.4
2023-03-15T15:09:11.891Z,1556.2
2023-03-15T15:11:05.423Z,2981
2023-03-15T15:13:07.016Z,5431.7
2023-03-15T15:15:08.999Z,5431.7
2023-03-15T15:17:04.967Z,4914.8
2023-03-15T15:19:05.619Z,4023.9
2023-03-15T15:21:08.903Z,4023.9
2023-03-15T15:23:05.103Z,4447.1
2023-03-15T15:25:08.647Z,4230.2
2023-03-15T15:29:05.024Z,3294.5
2023-03-15T15:31:05.617Z,2981
2023-03-15T15:33:05.044Z,2565.7
2023-03-15T15:35:05.747Z,2321.6
2023-03-15T15:37:08.809Z,2440.6
2023-03-15T15:39:06.898Z,3133.8
2023-03-15T15:41:05.185Z,4675.1
2023-03-15T15:43:05.926Z,3641
2023-03-15T15:45:05.635Z,4023.9
2023-03-15T15:49:05.648Z,3641
2023-03-15T15:51:05.498Z,15521.8
2023-03-15T15:53:08.812Z,4447.1
2023-03-15T15:55:08.827Z,4675.1
2023-03-15T15:57:05.346Z,3294.5
2023-03-15T15:59:12.033Z,2697.3
2023-03-15T16:01:08.727Z,2208.3
2023-03-15T16:03:05.290Z,1900.7
2023-03-15T16:05:11.013Z,1556.2
2023-03-15T16:07:05.425Z,1408.1
2023-03-15T16:09:08.714Z,1274.1
2023-03-15T16:11:05.485Z,1212
2023-03-15T16:13:05.088Z,992.3
2023-03-15T16:15:05.309Z,897.8
2023-03-15T16:17:05.494Z,854.1
2023-03-15T16:19:05.153Z,735.1
2023-03-15T16:21:05.846Z,699.2
2023-03-15T16:23:05.069Z,665.1
2023-03-15T16:25:05.661Z,544.6
2023-03-15T16:27:05.667Z,445.9
2023-03-15T16:31:05.196Z,330.3
2023-03-15T16:33:08.593Z,270.4
2023-03-15T16:35:04.942Z,232.8
2023-03-15T16:37:05.501Z,200.3
2023-03-15T16:39:04.939Z,172.4
2023-03-15T16:41:05.480Z,141.2
2023-03-15T16:43:05.306Z,127.7
2023-03-15T16:45:05.238Z,156
2023-03-15T16:49:08.752Z,221.4
2023-03-15T16:51:05.028Z,244.7
2023-03-15T16:53:04.936Z,244.7
2023-03-15T16:55:09.190Z,200.3
2023-03-15T16:57:08.807Z,172.4
2023-03-15T16:59:08.729Z,148.4
2023-03-15T17:01:08.860Z,134.3
2023-03-15T17:03:05.553Z,127.7
2023-03-15T17:05:05.792Z,115.6
2023-03-15T17:07:08.975Z,104.6
2023-03-15T17:09:05.641Z,99.5
2023-03-15T17:11:08.808Z,94.6
2023-03-15T17:13:05.496Z,81.5
2023-03-15T17:15:05.474Z,70.1
2023-03-15T17:17:11.877Z,60.3
2023-03-15T17:19:05.638Z,54.6
2023-03-15T17:21:05.632Z,49.4
2023-03-15T17:23:05.421Z,42.5
2023-03-15T17:25:05.094Z,34.8
2023-03-15T17:27:05.279Z,25.8
2023-03-15T17:31:23.504Z,9
2023-03-15T17:33:05.319Z,5.8
2023-03-15T17:35:05.504Z,3.9
2023-03-15T17:37:08.956Z,2.6
2023-03-15T17:39:05.226Z,1.8
2023-03-15T17:41:05.087Z,1.3
2023-03-15T17:43:05.727Z,1.2
2023-03-15T17:45:05.727Z,0.8
2023-03-15T17:47:09.566Z,0.5
2023-03-15T17:49:11.947Z,0.3
2023-03-15T17:51:05.840Z,0.2
2023-03-15T17:53:05.268Z,0.2
2023-03-15T17:55:09.491Z,0.1
2023-03-15T17:57:08.703Z,0
2023-03-15T18:01:05.914Z,0
2023-03-15T18:03:05.541Z,0
2023-03-15T18:05:08.661Z,1
2023-03-15T18:07:08.883Z,1
2023-03-15T18:09:05.109Z,1
2023-03-15T18:11:08.618Z,1
2023-03-15T18:13:05.396Z,1
2023-03-15T18:15:08.890Z,1
2023-03-15T18:17:05.075Z,1
2023-03-15T18:19:05.453Z,1
2023-03-15T18:21:08.928Z,1
2023-03-15T18:23:05.377Z,1
2023-03-15T18:25:05.000Z,1
2023-03-15T18:27:05.612Z,1
2023-03-15T18:29:05.641Z,1
2023-03-15T18:31:02.246Z,1
2023-03-15T18:33:05.665Z,1
2023-03-15T18:35:08.921Z,1
2023-03-15T18:37:05.764Z,1
2023-03-15T18:39:05.454Z,1
2023-03-15T18:43:08.655Z,1
2023-03-15T18:45:05.928Z,1
2023-03-15T18:47:08.369Z,1
2023-03-15T18:49:05.157Z,1
2023-03-15T18:51:05.795Z,1
2023-03-15T18:53:08.840Z,1
2023-03-15T18:55:05.749Z,1
2023-03-15T18:57:08.772Z,1
2023-03-15T18:59:05.634Z,1
2023-03-15T19:01:08.374Z,1
2023-03-15T19:03:05.153Z,1
2023-03-15T19:05:05.564Z,1
2023-03-15T19:07:05.499Z,1
2023-03-15T19:09:08.969Z,1
2023-03-15T19:11:04.948Z,1
2023-03-15T19:13:05.164Z,1
2023-03-15T19:15:05.734Z,1
2023-03-15T19:17:05.016Z,1
2023-03-15T19:19:08.856Z,1
2023-03-15T19:21:05.554Z,1
2023-03-15T19:23:08.680Z,1
2023-03-15T19:25:02.280Z,1
2023-03-15T19:29:08.297Z,1
2023-03-15T19:31:05.104Z,1
2023-03-15T19:33:09.069Z,1
2023-03-15T19:35:05.172Z,1
2023-03-15T19:37:05.040Z,1
2023-03-15T19:39:05.181Z,1
2023-03-15T19:41:10.228Z,1
2023-03-15T19:43:05.642Z,1
2023-03-15T19:45:05.415Z,1
2023-03-15T19:47:04.965Z,1
2023-03-15T19:49:05.514Z,1
2023-03-15T19:53:11.861Z,1
2023-03-15T19:55:12.306Z,1
2023-03-15T19:57:05.122Z,1
2023-03-15T19:59:05.547Z,1
2023-03-15T20:01:05.632Z,1
2023-03-15T20:03:09.130Z,1
2023-03-15T20:05:08.882Z,1
2023-03-15T20:07:05.102Z,1
2023-03-15T20:09:05.302Z,1
2023-03-15T20:11:04.970Z,1
2023-03-15T20:13:08.803Z,1
2023-03-15T20:15:08.653Z,1
2023-03-15T20:17:08.658Z,1
2023-03-15T20:19:05.926Z,1
2023-03-15T20:21:08.574Z,1
2023-03-15T20:23:09.023Z,1
2023-03-15T20:25:05.894Z,1
2023-03-15T20:27:04.985Z,1
2023-03-15T20:29:05.940Z,1
2023-03-15T20:31:05.240Z,1
2023-03-15T20:33:05.149Z,1
2023-03-15T20:35:05.505Z,1
2023-03-15T20:37:08.853Z,1
2023-03-15T20:39:05.120Z,1
2023-03-15T20:41:05.693Z,1
2023-03-15T20:43:04.971Z,1
2023-03-15T20:45:11.933Z,1
2023-03-15T20:47:05.528Z,1
2023-03-15T20:49:08.837Z,1
2023-03-15T20:51:05.320Z,1
2023-03-15T20:53:05.778Z,1
2023-03-15T20:55:05.620Z,1
2023-03-15T20:57:05.437Z,1
2023-03-15T20:59:05.579Z,1
2023-03-15T21:01:05.179Z,1
2023-03-15T21:03:05.582Z,1
2023-03-15T21:05:08.825Z,1
2023-03-15T21:07:05.168Z,1
2023-03-15T21:13:12.014Z,1
2023-03-15T21:15:05.090Z,1
2023-03-15T21:17:05.126Z,1
2023-03-15T21:19:05.159Z,1
2023-03-15T21:21:08.448Z,1
2023-03-15T21:23:04.947Z,1
2023-03-15T21:25:08.773Z,1
2023-03-15T21:27:05.527Z,1
2023-03-15T21:31:05.288Z,1
2023-03-15T21:33:05.139Z,1
2023-03-15T21:35:05.598Z,1
2023-03-15T21:37:05.557Z,1
2023-03-15T21:39:07.644Z,1
2023-03-15T21:41:05.091Z,1
2023-03-15T21:43:08.933Z,1
2023-03-15T21:45:05.442Z,1
2023-03-15T21:47:05.065Z,1
2023-03-15T21:49:05.219Z,1
2023-03-15T21:51:05.219Z,1
2023-03-15T21:53:05.623Z,1
2023-03-15T21:55:04.959Z,1
2023-03-15T21:57:04.956Z,1
2023-03-15T21:59:05.571Z,1
2023-03-15T22:01:05.409Z,1
2023-03-15T22:03:05.017Z,1
2023-03-15T22:05:05.626Z,1
2023-03-15T22:07:05.723Z,1
2023-03-15T22:09:08.942Z,1
2023-03-15T22:11:08.697Z,1
2023-03-15T22:13:05.188Z,1
2023-03-15T22:15:11.714Z,1
2023-03-15T22:17:05.738Z,1
2023-03-15T22:19:08.970Z,1
2023-03-15T22:21:09.028Z,1
2023-03-15T22:23:08.967Z,1
2023-03-15T22:25:05.348Z,1
2023-03-15T22:27:08.517Z,1
2023-03-15T22:29:05.578Z,1
2023-03-15T22:31:05.157Z,1
2023-03-15T22:33:05.202Z,1
2023-03-15T22:35:05.449Z,1
2023-03-15T22:37:05.080Z,1
2023-03-15T22:39:05.507Z,1
2023-03-15T22:41:05.529Z,1
2023-03-15T22:43:05.207Z,1
2023-03-15T22:45:08.631Z,1
2023-03-15T22:47:05.583Z,1
2023-03-15T22:49:05.429Z,1
2023-03-15T22:51:05.542Z,1
2023-03-15T22:53:05.079Z,1
2023-03-15T22:55:05.677Z,1
2023-03-15T22:57:04.939Z,1
2023-03-15T22:59:08.817Z,1
2023-03-15T23:01:05.941Z,1
2023-03-15T23:03:08.978Z,1
2023-03-15T23:05:05.685Z,1
2023-03-15T23:07:11.972Z,1
2023-03-15T23:09:09.375Z,1
2023-03-15T23:11:02.520Z,1
2023-03-15T23:13:04.997Z,1
2023-03-15T23:15:05.172Z,1
2023-03-15T23:17:05.540Z,1
2023-03-15T23:19:05.712Z,1
2023-03-15T23:21:08.165Z,1
2023-03-15T23:23:08.856Z,1
2023-03-15T23:25:05.940Z,1
2023-03-15T23:27:05.915Z,1
2023-03-15T23:29:05.014Z,1
2023-03-15T23:31:05.607Z,1
2023-03-15T23:33:05.640Z,1
2023-03-15T23:35:05.591Z,1
2023-03-15T23:37:05.593Z,1
2023-03-15T23:39:08.828Z,1
2023-03-15T23:41:12.258Z,1
2023-03-15T23:43:12.130Z,1
2023-03-15T23:45:08.996Z,1
2023-03-15T23:47:08.909Z,1
2023-03-15T23:49:05.566Z,1
2023-03-15T23:51:05.476Z,1
2023-03-15T23:53:08.898Z,1
2023-03-15T23:55:05.513Z,1
2023-03-15T23:57:05.540Z,1
2023-03-15T23:59:08.661Z,1
